Bootsie B, — WDF9484 — position and weather

sailwx.info

Track history (hours):
 
Tides and Currents Weather Stations Pressure Air Temp Water Temp Dewpoint Dewpoint Depression Visibility Wind Speed Wind Dir Waves Ship Positions

Bootsie B,

Owner: Marquette Transp[ortation Co. LLC, Paducah, KY. More information available from US FCC via Universal Licensing System and Coast Guard Vessel Documentation Center.

Last reported at 2017-Feb-13 14:29 UTC. Time now 2017-Feb-19 18:47 UTC.
Position N 32°37' W 091°09'.

; draft 3.7 m.

Type: Towing. MMSI: 367505630.

Date/timePositionNaut miles runAvg speedWind from/ knotsBaromVisibWave heightAir tempDewpointWater temp
2017-Feb-13 14:29N 32°37' W 091°09'4 4.6
2017-Feb-13 13:34N 32°33' W 091°06'5 5.0
2017-Feb-13 12:33N 32°28' W 091°06'5 5.0
2017-Feb-13 11:33N 32°26' W 091°01'4 4.4
2017-Feb-13 10:33N 32°21' W 091°00'5 4.7
2017-Feb-13 09:33N 32°20' W 090°55'3 2.5
2017-Feb-13 08:34N 32°18' W 090°56'4 4.0
2017-Feb-13 07:34N 32°15' W 090°59'4 4.2
2017-Feb-13 06:33N 32°11' W 091°00'4 3.8
2017-Feb-13 05:33N 32°07' W 091°02'4 3.5
2017-Feb-13 04:33N 32°07' W 091°06'5 4.6
2017-Feb-13 03:28N 32°02' W 091°04'  
2017-Feb-05 13:32N 31°60' W 091°05'8 8.2
2017-Feb-05 12:33N 32°08' W 091°05'9 9.1
2017-Feb-05 11:34N 32°15' W 090°59'6 5.8
2017-Feb-05 10:34N 32°21' W 090°59'9 9.2
2017-Feb-05 09:34N 32°28' W 091°06'1110.4
2017-Feb-05 08:33N 32°38' W 091°09'  
Track history (hours):
 
Tides and Currents Weather Stations Pressure Air Temp Water Temp Dewpoint Dewpoint Depression Visibility Wind Speed Wind Dir Waves Ship Positions

Bootsie B,

Owner: Marquette Transp[ortation Co. LLC, Paducah, KY. More information available from US FCC via Universal Licensing System and Coast Guard Vessel Documentation Center.

Last reported at 2017-Feb-13 14:29 UTC. Time now 2017-Feb-19 18:47 UTC.
Position N 32°37' W 091°09'.

; draft 3.7 m.

Type: Towing. MMSI: 367505630.

Date/timePositionNaut miles runAvg speedWind from/ knotsBaromVisibWave heightAir tempDewpointWater temp
2017-Feb-13 14:29N 32°37' W 091°09'4 4.6
2017-Feb-13 13:34N 32°33' W 091°06'5 5.0
2017-Feb-13 12:33N 32°28' W 091°06'5 5.0
2017-Feb-13 11:33N 32°26' W 091°01'4 4.4
2017-Feb-13 10:33N 32°21' W 091°00'5 4.7
2017-Feb-13 09:33N 32°20' W 090°55'3 2.5
2017-Feb-13 08:34N 32°18' W 090°56'4 4.0
2017-Feb-13 07:34N 32°15' W 090°59'4 4.2
2017-Feb-13 06:33N 32°11' W 091°00'4 3.8
2017-Feb-13 05:33N 32°07' W 091°02'4 3.5
2017-Feb-13 04:33N 32°07' W 091°06'5 4.6
2017-Feb-13 03:28N 32°02' W 091°04'  
2017-Feb-05 13:32N 31°60' W 091°05'8 8.2
2017-Feb-05 12:33N 32°08' W 091°05'9 9.1
2017-Feb-05 11:34N 32°15' W 090°59'6 5.8
2017-Feb-05 10:34N 32°21' W 090°59'9 9.2
2017-Feb-05 09:34N 32°28' W 091°06'1110.4
2017-Feb-05 08:33N 32°38' W 091°09'  

Dump ship's entire track history